Time;durP1;ratioP1;P1;durP2;ratioP2;P2;SDS_P1;SDS_P2;PMS_P1;PMS_P2;Temp;Humidity;BMP_temperature;BMP_pressure;BME280_temperature;BME280_humidity;BME280_pressure;Samples;Min_cycle;Max_cycle;Signal;HPM_P1;HPM_P2
2021/07/24 00:01:08;;;;;;;2.50;1.23;;;;;;;16.60;100.00;99975.80;1716338;82;21150;-61
2021/07/24 00:03:35;;;;;;;6.73;1.50;;;;;;;16.50;100.00;99975.84;1713667;82;21445;-61
2021/07/24 00:06:02;;;;;;;5.73;1.90;;;;;;;16.33;100.00;99979.37;1719082;82;21019;-59
2021/07/24 00:08:29;;;;;;;4.40;1.70;;;;;;;15.79;100.00;99985.94;1718620;82;22196;-61
2021/07/24 00:10:55;;;;;;;4.07;1.33;;;;;;;15.66;100.00;99984.31;1717678;83;21496;-62
2021/07/24 00:13:24;;;;;;;5.13;1.70;;;;;;;15.62;100.00;99992.32;1718232;82;22350;-62
2021/07/24 00:15:50;;;;;;;3.43;1.60;;;;;;;15.74;100.00;99988.45;1718583;82;20999;-62
2021/07/24 00:18:17;;;;;;;12.93;2.10;;;;;;;15.73;100.00;99988.17;1695851;83;21494;-60
2021/07/24 00:20:44;;;;;;;2.97;1.63;;;;;;;15.73;100.00;99988.17;1719405;82;21149;-62
2021/07/24 00:23:11;;;;;;;4.07;1.57;;;;;;;15.86;100.00;99985.86;1718901;82;21862;-62
2021/07/24 00:25:42;;;;;;;3.40;1.50;;;;;;;15.79;100.00;99985.94;1718032;83;21157;-63
2021/07/24 00:28:08;;;;;;;3.80;1.40;;;;;;;15.76;100.00;99987.21;1717465;82;21644;-60
2021/07/24 00:30:39;;;;;;;4.20;1.90;;;;;;;15.73;100.00;99992.91;1717926;82;21527;-62
2021/07/24 00:33:08;;;;;;;5.03;1.70;;;;;;;15.65;100.00;99990.59;1717165;83;21651;-64
2021/07/24 00:35:35;;;;;;;3.23;1.83;;;;;;;15.70;100.00;99997.80;1718280;83;20884;-63
2021/07/24 00:38:02;;;;;;;3.23;1.50;;;;;;;15.65;100.00;99990.59;1720198;82;21639;-62
2021/07/24 00:40:52;;;;;;;4.50;1.83;;;;;;;15.55;100.00;99987.14;1717832;83;21089;-63
2021/07/24 00:43:21;;;;;;;3.77;1.67;;;;;;;15.42;100.00;99986.50;1727740;81;22186;-63
2021/07/24 00:45:48;;;;;;;4.37;2.23;;;;;;;15.42;100.00;99986.50;1676132;84;21474;-63
2021/07/24 00:48:20;;;;;;;3.43;1.53;;;;;;;15.43;100.00;99994.17;1700398;83;21905;-63
2021/07/24 00:51:07;;;;;;;2.72;1.60;;;;;;;15.43;100.00;99987.61;1693650;82;22355;-60
2021/07/24 00:53:35;;;;;;;6.10;2.47;;;;;;;15.39;100.00;99988.27;1732172;82;22130;-62
2021/07/24 00:56:04;;;;;;;4.50;2.40;;;;;;;15.33;100.00;99988.11;1702576;83;22268;-62
2021/07/24 00:58:35;;;;;;;4.83;1.50;;;;;;;15.33;100.00;99988.11;1703112;82;21485;-62
2021/07/24 01:01:03;;;;;;;5.97;1.67;;;;;;;15.34;100.00;99991.54;1721392;81;21737;-62
2021/07/24 01:03:29;;;;;;;5.63;2.07;;;;;;;15.37;100.00;99987.17;1724367;82;21850;-62
2021/07/24 01:05:58;;;;;;;5.70;1.83;;;;;;;15.46;100.00;99994.25;1728668;81;21700;-62
2021/07/24 01:08:25;;;;;;;3.90;1.90;;;;;;;15.29;100.00;99992.20;1723933;82;21684;-62
2021/07/24 01:10:53;;;;;;;4.67;1.87;;;;;;;15.29;100.00;99994.83;1724910;81;21688;-60
2021/07/24 01:13:20;;;;;;;4.03;1.53;;;;;;;15.36;100.00;99995.28;1722571;82;21598;-62
2021/07/24 01:15:51;;;;;;;5.03;2.03;;;;;;;15.43;100.00;99999.42;1769390;79;21606;-61
2021/07/24 01:18:20;;;;;;;4.30;1.92;;;;;;;15.53;100.00;99997.57;1767242;79;21796;-61
2021/07/24 01:20:47;;;;;;;3.40;1.70;;;;;;;15.54;100.00;99993.95;1768139;80;21453;-62
2021/07/24 01:23:14;;;;;;;2.70;1.40;;;;;;;15.46;100.00;99996.36;1769583;79;22160;-61
2021/07/24 01:25:50;;;;;;;5.13;1.90;;;;;;;15.44;100.00;99998.39;1769532;79;21624;-60
2021/07/24 01:28:30;;;;;;;2.83;1.57;;;;;;;15.50;100.00;99999.35;1764497;80;21740;-62
2021/07/24 01:30:58;;;;;;;4.03;1.70;;;;;;;15.58;100.00;100001.67;1724562;82;21633;-64
2021/07/24 01:33:25;;;;;;;9.37;2.23;;;;;;;15.57;100.00;99998.77;1725146;82;21735;-62
2021/07/24 01:35:54;;;;;;;6.53;2.40;;;;;;;15.56;100.00;100007.64;1769586;79;21674;-61
2021/07/24 01:38:24;;;;;;;10.27;1.70;;;;;;;15.55;100.00;100008.16;1767735;79;21681;-62
2021/07/24 01:40:52;;;;;;;;;;;;;;;15.32;100.00;100010.16;1773287;80;21699;-61
2021/07/24 01:43:19;;;;;;;5.50;2.23;;;;;;;15.28;100.00;100007.68;1768390;80;20146;-61
2021/07/24 01:45:46;;;;;;;3.53;2.23;;;;;;;15.24;100.00;100012.28;1754471;80;21717;-62
2021/07/24 01:48:17;;;;;;;3.30;1.97;;;;;;;15.25;100.00;100010.73;1765176;80;21728;-62
2021/07/24 01:53:32;;;;;;;4.90;1.90;;;;;;;15.05;100.00;100003.60;1772733;80;21586;-62
2021/07/24 01:56:04;;;;;;;7.15;2.60;;;;;;;14.91;100.00;100012.11;1736968;82;22088;-63
2021/07/24 01:58:35;;;;;;;4.57;1.90;;;;;;;15.00;100.00;100012.63;1735109;82;21502;-63
2021/07/24 02:01:06;;;;;;;5.50;2.17;;;;;;;15.06;100.00;100007.31;1686421;83;22670;-62
2021/07/24 02:03:44;;;;;;;3.98;1.40;;;;;;;15.07;100.00;100012.84;1714761;81;22186;-62
2021/07/24 02:06:15;;;;;;;5.57;1.97;;;;;;;15.03;100.00;100013.50;1713323;81;21144;-61
2021/07/24 02:08:48;;;;;;;5.62;2.00;;;;;;;15.08;100.00;100014.98;1715588;82;21699;-60
2021/07/24 02:11:18;;;;;;;7.77;2.43;;;;;;;15.11;100.00;100017.15;1715532;81;21047;-61
2021/07/24 02:13:47;;;;;;;3.53;1.60;;;;;;;15.27;100.00;100012.65;1713109;82;21692;-61
2021/07/24 02:16:14;;;;;;;3.73;1.80;;;;;;;15.35;100.00;100013.37;1715645;81;21725;-60
2021/07/24 02:18:41;;;;;;;8.13;2.10;;;;;;;15.64;100.00;100018.36;1713122;82;21758;-62
2021/07/24 02:21:10;;;;;;;3.23;1.87;;;;;;;15.90;100.00;100014.61;1709096;81;23242;-62
2021/07/24 02:23:37;;;;;;;6.27;1.87;;;;;;;16.22;100.00;100017.80;1731803;81;21678;-62
2021/07/24 02:26:04;;;;;;;3.67;1.90;;;;;;;16.51;100.00;100016.11;1711418;82;20957;-61
2021/07/24 02:28:32;;;;;;;4.00;1.77;;;;;;;16.80;100.00;100017.59;1711762;82;20976;-62
2021/07/24 02:30:59;;;;;;;4.73;2.00;;;;;;;17.04;100.00;100013.89;1716672;81;21280;-62
2021/07/24 02:33:26;;;;;;;5.80;1.73;;;;;;;17.38;100.00;100010.10;1721790;81;21071;-62
2021/07/24 02:35:53;;;;;;;4.23;1.90;;;;;;;17.66;100.00;100007.50;1719056;82;21060;-60
2021/07/24 02:38:21;;;;;;;8.53;2.30;;;;;;;17.83;100.00;100008.08;1718253;82;21021;-61
2021/07/24 02:40:48;;;;;;;4.70;2.20;;;;;;;18.03;100.00;100009.74;1718914;82;21048;-60
2021/07/24 02:43:16;;;;;;;6.70;3.90;;;;;;;18.13;100.00;100003.33;1719028;82;21166;-60
2021/07/24 02:45:43;;;;;;;13.80;6.90;;;;;;;18.07;100.00;100002.98;1717672;81;20996;-60
2021/07/24 02:48:11;;;;;;;16.03;12.23;;;;;;;18.02;100.00;100003.40;1718860;82;20952;-61
2021/07/24 02:50:49;;;;;;;26.00;17.47;;;;;;;17.90;100.00;100012.69;1718876;82;21467;-60
2021/07/24 02:53:17;;;;;;;29.10;20.10;;;;;;;17.81;100.00;100014.92;1718909;81;21410;-61
2021/07/24 02:55:44;;;;;;;26.43;17.60;;;;;;;17.63;100.00;100021.14;1718855;82;21152;-61
2021/07/24 02:58:11;;;;;;;19.53;13.67;;;;;;;17.70;100.00;100022.33;1718357;81;21519;-61
2021/07/24 03:00:39;;;;;;;18.70;12.07;;;;;;;17.79;100.00;100018.82;1718060;81;21516;-60
2021/07/24 03:03:06;;;;;;;17.33;11.43;;;;;;;18.22;100.00;100019.06;1729263;81;21039;-61
2021/07/24 03:05:32;;;;;;;16.23;10.30;;;;;;;18.45;100.00;100021.27;1730357;81;21022;-61
2021/07/24 03:07:59;;;;;;;16.13;10.40;;;;;;;18.67;100.00;100020.78;1731667;81;21155;-62
2021/07/24 03:10:27;;;;;;;13.03;8.80;;;;;;;19.20;100.00;100026.02;1728490;81;21237;-61
2021/07/24 03:12:54;;;;;;;11.67;7.77;;;;;;;20.05;100.00;100017.72;1729928;81;21156;-62
2021/07/24 03:15:21;;;;;;;10.60;6.50;;;;;;;20.72;100.00;100023.83;1730355;81;21434;-61
2021/07/24 03:17:48;;;;;;;10.90;5.77;;;;;;;21.29;100.00;100015.59;1731086;81;21003;-61
2021/07/24 03:20:15;;;;;;;7.10;4.80;;;;;;;21.86;100.00;100005.45;1729910;81;22105;-62
2021/07/24 03:22:43;;;;;;;6.03;3.43;;;;;;;22.58;100.00;100007.06;1730128;81;21552;-60
2021/07/24 03:25:10;;;;;;;6.77;3.40;;;;;;;23.27;100.00;100006.08;1729362;81;21070;-62
2021/07/24 03:27:37;;;;;;;9.27;3.33;;;;;;;24.03;100.00;100000.30;1729457;81;21015;-61
2021/07/24 03:30:05;;;;;;;6.27;3.40;;;;;;;24.67;100.00;100000.30;1730331;81;20990;-63
2021/07/24 03:32:32;;;;;;;9.00;3.50;;;;;;;25.21;100.00;99998.61;1731003;81;21190;-62
2021/07/24 03:34:58;;;;;;;5.60;3.63;;;;;;;25.67;100.00;99996.64;1729383;81;21019;-62
2021/07/24 03:37:25;;;;;;;10.17;4.10;;;;;;;26.11;100.00;99994.67;1729689;81;21460;-63
2021/07/24 03:39:52;;;;;;;7.07;2.97;;;;;;;26.65;98.91;100001.23;1731375;81;21059;-61
2021/07/24 03:42:19;;;;;;;4.50;2.40;;;;;;;26.97;89.52;100002.20;1727784;81;21015;-61
2021/07/24 03:44:46;;;;;;;5.67;2.83;;;;;;;27.21;83.40;99999.36;1729412;81;22266;-63
2021/07/24 03:47:12;;;;;;;5.40;2.40;;;;;;;27.50;74.94;100001.10;1732069;81;21128;-62
2021/07/24 03:49:39;;;;;;;3.58;2.10;;;;;;;27.83;72.68;100000.92;1728891;81;21635;-62
2021/07/24 03:52:07;;;;;;;6.97;2.67;;;;;;;28.19;65.29;100006.77;1731558;81;20934;-62
2021/07/24 03:54:34;;;;;;;7.80;2.60;;;;;;;28.53;62.84;100010.20;1729500;81;21637;-63
2021/07/24 03:57:01;;;;;;;6.50;3.12;;;;;;;28.89;58.83;100010.56;1731627;81;21371;-63
2021/07/24 03:59:28;;;;;;;7.25;3.30;;;;;;;29.29;55.82;100012.67;1729791;81;21026;-63
2021/07/24 04:01:57;;;;;;;8.53;4.55;;;;;;;29.65;53.72;100014.28;1728072;81;21077;-61
2021/07/24 04:04:22;;;;;;;7.30;4.12;;;;;;;30.00;51.02;100013.16;1726115;81;21893;-63
2021/07/24 04:06:50;;;;;;;7.10;2.58;;;;;;;30.32;48.66;100002.98;1726616;81;21073;-63
2021/07/24 04:09:16;;;;;;;7.03;2.67;;;;;;;30.57;47.14;100011.27;1728716;81;21144;-65
2021/07/24 04:11:43;;;;;;;5.87;2.80;;;;;;;30.87;46.25;100006.72;1725834;81;21046;-66
2021/07/24 04:14:10;;;;;;;7.35;2.72;;;;;;;31.22;45.50;100006.77;1725154;81;20947;-62
2021/07/24 04:16:38;;;;;;;4.08;2.55;;;;;;;31.74;43.60;100007.70;1720159;81;21110;-67
2021/07/24 04:19:04;;;;;;;4.58;2.52;;;;;;;32.16;42.51;100015.75;1720747;81;21866;-64
2021/07/24 04:21:31;;;;;;;5.12;2.25;;;;;;;32.47;41.20;100011.78;1728296;81;22112;-65
2021/07/24 04:23:58;;;;;;;6.45;2.62;;;;;;;32.92;40.47;100011.67;1726228;81;20995;-62
2021/07/24 04:26:25;;;;;;;3.45;1.98;;;;;;;33.40;39.43;100011.93;1728992;81;20943;-66
2021/07/24 04:28:52;;;;;;;5.87;2.60;;;;;;;33.77;38.33;100014.53;1726075;81;21446;-64
2021/07/24 04:31:19;;;;;;;4.90;2.55;;;;;;;34.05;37.44;100010.46;1727386;81;21493;-65
2021/07/24 04:33:46;;;;;;;5.45;2.05;;;;;;;34.34;36.54;100012.77;1725516;81;21160;-66
2021/07/24 04:36:13;;;;;;;4.95;2.30;;;;;;;34.62;35.62;100016.74;1721568;81;20991;-64
2021/07/24 04:38:41;;;;;;;6.60;2.10;;;;;;;34.84;35.20;100010.48;1718179;81;21103;-65
2021/07/24 04:41:07;;;;;;;4.75;2.42;;;;;;;35.16;33.68;100015.28;1722229;81;21051;-65
2021/07/24 04:43:34;;;;;;;5.17;2.30;;;;;;;35.21;32.85;100013.64;1722024;81;20976;-66
2021/07/24 04:46:00;;;;;;;5.22;2.47;;;;;;;35.29;33.01;100016.72;1714623;81;21588;-63
2021/07/24 04:48:27;;;;;;;5.20;1.70;;;;;;;35.38;32.89;100016.50;1718404;81;21496;-64
2021/07/24 04:50:56;;;;;;;6.33;2.12;;;;;;;35.76;32.91;100016.30;1725517;81;21415;-64
2021/07/24 04:53:22;;;;;;;4.75;1.87;;;;;;;36.11;32.04;100013.49;1725629;81;21054;-65
2021/07/24 04:55:48;;;;;;;3.60;2.00;;;;;;;36.19;31.45;100019.83;1720795;81;21619;-66
2021/07/24 04:58:15;;;;;;;3.22;2.35;;;;;;;36.35;31.13;100020.48;1722175;81;21110;-62
2021/07/24 05:00:44;;;;;;;3.75;2.10;;;;;;;36.48;30.77;100024.62;1724303;81;21683;-66
2021/07/24 05:03:14;;;;;;;2.98;1.98;;;;;;;36.62;30.71;100025.97;1691804;82;21551;-66
2021/07/24 05:05:41;;;;;;;;;;;;;;;36.86;30.66;100030.20;1696574;84;21607;-66
2021/07/24 05:08:08;;;;;;;4.78;2.10;;;;;;;37.16;30.33;100035.69;1690788;84;20072;-66
2021/07/24 05:10:37;;;;;;;3.72;1.92;;;;;;;37.37;29.99;100029.76;1689712;84;21131;-66
2021/07/24 05:13:03;;;;;;;5.08;2.30;;;;;;;37.59;29.59;100032.19;1691201;83;22424;-66
2021/07/24 05:15:30;;;;;;;5.40;2.55;;;;;;;38.00;29.16;100028.16;1692321;84;21116;-65
2021/07/24 05:17:56;;;;;;;6.05;2.30;;;;;;;38.40;28.11;100037.69;1696660;83;20966;-66
2021/07/24 05:20:28;;;;;;;3.77;1.90;;;;;;;38.86;27.24;100030.44;1690189;84;21026;-66
2021/07/24 05:22:58;;;;;;;3.42;1.92;;;;;;;39.23;26.13;100039.02;1693364;84;22153;-65
2021/07/24 05:25:24;;;;;;;5.08;2.12;;;;;;;39.25;25.53;100036.73;1691389;84;21054;-64
2021/07/24 05:27:51;;;;;;;5.08;2.30;;;;;;;39.35;25.74;100041.42;1693256;83;21014;-65
2021/07/24 05:30:18;;;;;;;5.92;2.62;;;;;;;39.64;25.91;100034.72;1689957;84;21030;-65
2021/07/24 05:32:45;;;;;;;4.05;2.72;;;;;;;39.88;25.09;100040.83;1692995;83;21044;-62
2021/07/24 05:35:12;;;;;;;4.72;2.45;;;;;;;39.81;24.43;100032.63;1691262;84;21655;-65
2021/07/24 05:37:39;;;;;;;6.00;2.55;;;;;;;39.95;23.94;100034.61;1692671;84;21323;-64
2021/07/24 05:40:08;;;;;;;4.70;2.25;;;;;;;39.83;24.15;100039.08;1692454;83;21436;-64
2021/07/24 05:42:34;;;;;;;5.85;2.20;;;;;;;39.89;24.36;100040.24;1687504;84;20994;-65
2021/07/24 05:45:01;;;;;;;5.33;2.22;;;;;;;40.03;24.22;100038.13;1693410;83;20969;-64
2021/07/24 05:47:31;;;;;;;6.25;2.58;;;;;;;40.14;24.07;100040.31;1691578;84;22038;-62
2021/07/24 05:49:58;;;;;;;5.50;2.77;;;;;;;40.18;23.89;100037.00;1692275;84;20991;-59
2021/07/24 05:52:25;;;;;;;4.78;2.47;;;;;;;40.30;23.99;100033.09;1692506;84;21037;-62
2021/07/24 05:54:53;;;;;;;5.53;2.60;;;;;;;40.40;23.50;100034.28;1692398;83;20965;-65
2021/07/24 05:57:20;;;;;;;5.78;2.65;;;;;;;40.41;23.89;100035.83;1690600;84;22008;-64
2021/07/24 05:59:46;;;;;;;5.40;2.52;;;;;;;40.30;24.12;100042.06;1692573;84;21167;-62
2021/07/24 06:02:14;;;;;;;8.05;2.80;;;;;;;40.37;23.98;100039.34;1701456;82;20978;-59
2021/07/24 06:04:42;;;;;;;5.30;2.75;;;;;;;40.45;23.91;100037.38;1721381;81;21007;-59
2021/07/24 06:07:10;;;;;;;4.17;2.70;;;;;;;40.73;23.74;100042.67;1718170;81;22466;-64
2021/07/24 06:09:36;;;;;;;4.72;2.98;;;;;;;41.09;23.74;100042.00;1722583;81;21014;-64
2021/07/24 06:12:04;;;;;;;5.80;3.75;;;;;;;41.20;23.18;100040.02;1717803;81;21160;-63
2021/07/24 06:14:31;;;;;;;7.53;3.10;;;;;;;41.15;23.36;100048.64;1721729;81;21014;-63
2021/07/24 06:16:58;;;;;;;6.00;3.37;;;;;;;41.02;23.61;100044.76;1723135;81;21411;-63
2021/07/24 06:19:24;;;;;;;4.20;2.65;;;;;;;41.22;23.36;100037.67;1722669;81;21065;-62
2021/07/24 06:21:51;;;;;;;5.65;2.70;;;;;;;41.10;23.26;100044.92;1718849;81;21051;-63
2021/07/24 06:24:17;;;;;;;5.90;2.60;;;;;;;41.13;23.23;100041.40;1719254;81;22201;-62
2021/07/24 06:26:45;;;;;;;5.42;2.98;;;;;;;41.25;23.15;100040.18;1723841;81;21491;-62
2021/07/24 06:29:12;;;;;;;3.12;2.33;;;;;;;41.39;23.13;100044.82;1719446;81;21006;-61
2021/07/24 06:31:38;;;;;;;3.15;2.15;;;;;;;41.38;23.15;100039.17;1720703;81;21089;-64
2021/07/24 06:34:05;;;;;;;6.15;2.80;;;;;;;41.42;22.98;100045.43;1717673;81;21540;-63
2021/07/24 06:36:32;;;;;;;5.17;2.52;;;;;;;41.36;23.21;100040.14;1715701;81;21968;-65
2021/07/24 06:38:58;;;;;;;3.27;2.20;;;;;;;41.52;22.86;100041.84;1718961;81;21473;-64
2021/07/24 06:41:26;;;;;;;4.60;2.70;;;;;;;41.34;23.06;100043.28;1713000;81;21010;-62
2021/07/24 06:43:54;;;;;;;5.87;2.30;;;;;;;41.46;23.05;100042.86;1720521;81;21525;-63
2021/07/24 06:46:21;;;;;;;5.50;3.00;;;;;;;41.45;22.94;100045.41;1725383;81;20966;-64
2021/07/24 06:48:48;;;;;;;8.33;2.25;;;;;;;41.55;23.06;100039.69;1728079;81;21154;-63
2021/07/24 06:51:14;;;;;;;3.50;2.02;;;;;;;41.77;22.55;100045.22;1722362;81;21474;-64
2021/07/24 06:53:41;;;;;;;3.45;2.00;;;;;;;41.94;22.14;100043.59;1724767;81;21042;-61
2021/07/24 06:56:08;;;;;;;3.95;1.82;;;;;;;41.91;21.88;100050.46;1725881;81;21122;-64
2021/07/24 06:58:35;;;;;;;7.97;1.82;;;;;;;41.95;21.15;100048.47;1727937;81;20935;-61
2021/07/24 07:01:11;;;;;;;2.92;1.92;;;;;;;41.97;21.06;100041.99;1726922;81;21114;-64
2021/07/24 07:03:35;;;;;;;5.15;1.98;;;;;;;42.02;21.01;100045.69;1725471;81;21038;-61
2021/07/24 07:06:11;;;;;;;3.25;1.72;;;;;;;41.86;21.03;100047.53;1724584;81;21556;-64
2021/07/24 07:08:38;;;;;;;2.65;1.45;;;;;;;42.08;21.23;100048.17;1716789;81;20999;-63
2021/07/24 07:11:05;;;;;;;3.40;1.52;;;;;;;42.14;20.71;100041.69;1715762;81;21168;-63
2021/07/24 07:13:33;;;;;;;2.90;1.90;;;;;;;41.92;20.87;100041.06;1714003;81;21148;-64
2021/07/24 07:16:08;;;;;;;4.50;2.15;;;;;;;41.91;20.59;100040.87;1713044;81;21230;-63
2021/07/24 07:18:37;;;;;;;2.27;1.40;;;;;;;41.83;20.89;100043.48;1717042;81;21583;-63
2021/07/24 07:21:05;;;;;;;4.10;1.90;;;;;;;41.86;20.70;100037.95;1722179;81;21106;-63
2021/07/24 07:23:31;;;;;;;2.67;1.80;;;;;;;41.70;21.03;100041.16;1725069;81;21013;-62
2021/07/24 07:25:58;;;;;;;3.80;2.35;;;;;;;41.63;21.17;100036.31;1725154;81;22148;-63
2021/07/24 07:28:24;;;;;;;3.70;2.02;;;;;;;41.41;20.64;100037.01;1722753;81;21114;-61
2021/07/24 07:30:50;;;;;;;2.80;1.57;;;;;;;41.55;20.39;100035.58;1724848;81;21072;-63
2021/07/24 07:33:17;;;;;;;7.60;1.50;;;;;;;41.51;20.61;100038.92;1723771;81;21043;-64
2021/07/24 07:35:44;;;;;;;4.20;1.60;;;;;;;41.58;20.75;100038.11;1719229;81;21040;-61
2021/07/24 07:38:10;;;;;;;4.80;1.67;;;;;;;41.70;19.96;100028.84;1726145;81;21129;-63
2021/07/24 07:40:39;;;;;;;2.50;1.62;;;;;;;41.55;20.10;100028.73;1718007;81;21403;-63
2021/07/24 07:43:08;;;;;;;3.65;1.72;;;;;;;40.77;20.50;100026.45;1707340;82;21019;-63
2021/07/24 07:45:36;;;;;;;2.57;1.57;;;;;;;40.77;20.50;100026.45;1724271;81;21065;-63
2021/07/24 07:48:05;;;;;;;2.03;1.47;;;;;;;40.19;20.86;100022.17;1727441;81;21458;-63
2021/07/24 07:50:32;;;;;;;4.33;1.77;;;;;;;40.19;20.86;100022.17;1722365;81;21353;-64
2021/07/24 07:53:00;;;;;;;3.17;1.62;;;;;;;40.26;21.23;100020.80;1724492;81;21077;-65
2021/07/24 07:55:26;;;;;;;3.17;1.45;;;;;;;40.52;21.35;100025.67;1729232;81;21062;-65
2021/07/24 07:57:54;;;;;;;3.10;1.72;;;;;;;40.80;20.92;100022.94;1726243;81;21521;-65
2021/07/24 08:00:21;;;;;;;2.35;1.55;;;;;;;40.76;21.21;100030.34;1718036;81;21082;-63
2021/07/24 08:02:54;;;;;;;2.40;1.40;;;;;;;40.68;20.44;100029.39;1725185;81;21166;-64
2021/07/24 08:05:22;;;;;;;3.05;1.75;;;;;;;40.64;20.63;100025.29;1728294;81;21030;-64
2021/07/24 08:07:49;;;;;;;4.00;2.37;;;;;;;40.82;20.71;100025.27;1724159;81;21052;-63
2021/07/24 08:10:16;;;;;;;5.40;1.70;;;;;;;40.91;21.35;100028.34;1725724;81;20958;-61
2021/07/24 08:12:42;;;;;;;3.25;1.25;;;;;;;40.85;20.44;100023.89;1727947;81;21086;-64
2021/07/24 08:15:11;;;;;;;4.00;1.25;;;;;;;40.75;20.49;100032.11;1729428;80;21003;-65
2021/07/24 08:17:39;;;;;;;2.80;1.45;;;;;;;40.67;20.67;100035.44;1724966;81;21018;-65
2021/07/24 08:20:08;;;;;;;2.90;1.30;;;;;;;40.64;20.95;100029.39;1724528;81;21076;-62
2021/07/24 08:22:35;;;;;;;11.33;2.50;;;;;;;40.68;20.82;100030.75;1727953;81;20978;-64
2021/07/24 08:25:05;;;;;;;2.83;2.08;;;;;;;40.90;20.21;100038.33;1727102;81;21532;-65
2021/07/24 08:27:32;;;;;;;5.80;1.65;;;;;;;40.96;20.25;100036.17;1727265;81;21126;-63
2021/07/24 08:29:59;;;;;;;2.37;1.05;;;;;;;41.09;19.84;100033.80;1729351;81;20934;-65
2021/07/24 08:32:25;;;;;;;3.40;1.40;;;;;;;41.01;19.74;100030.31;1723157;81;21559;-65
2021/07/24 08:34:52;;;;;;;2.42;1.47;;;;;;;41.14;19.36;100030.65;1726758;81;21048;-64
2021/07/24 08:37:19;;;;;;;2.22;1.20;;;;;;;41.43;19.77;100031.94;1727321;81;20970;-64
2021/07/24 08:39:47;;;;;;;3.85;1.45;;;;;;;41.60;20.39;100035.17;1725898;81;20931;-63
2021/07/24 08:42:42;;;;;;;2.42;1.37;;;;;;;41.39;19.62;100037.39;1726163;81;20995;-62
2021/07/24 08:45:11;;;;;;;3.12;1.30;;;;;;;40.93;19.55;100043.01;1726758;81;21551;-64
2021/07/24 08:47:39;;;;;;;3.05;1.37;;;;;;;40.50;20.31;100037.56;1729293;81;20963;-64
2021/07/24 08:50:07;;;;;;;5.25;1.80;;;;;;;40.40;20.33;100035.64;1727215;81;20978;-62
2021/07/24 08:52:35;;;;;;;2.67;1.35;;;;;;;40.11;20.33;100033.64;1726051;82;22188;-64
2021/07/24 08:55:04;;;;;;;2.40;1.57;;;;;;;39.83;20.71;100039.86;1727487;81;21043;-65
2021/07/24 08:57:33;;;;;;;2.42;1.50;;;;;;;39.82;20.79;100039.67;1722871;81;20982;-64
2021/07/24 09:00:05;;;;;;;3.47;1.30;;;;;;;39.84;20.63;100035.95;1723448;81;20967;-65
2021/07/24 09:02:31;;;;;;;;;;;;;;;39.71;20.59;100036.13;1725551;81;21849;-65
2021/07/24 09:05:04;;;;;;;3.05;1.60;;;;;;;39.66;20.71;100033.73;1698296;84;21147;-65
2021/07/24 09:07:43;;;;;;;2.58;1.70;;;;;;;39.78;20.46;100038.88;1698055;84;21025;-64
2021/07/24 09:10:10;;;;;;;3.30;1.57;;;;;;;39.93;20.48;100036.16;1699211;83;21609;-62
2021/07/24 09:12:39;;;;;;;1.85;1.37;;;;;;;40.05;20.69;100033.85;1698235;84;21100;-64
2021/07/24 09:15:07;;;;;;;4.33;1.50;;;;;;;40.21;20.55;100033.50;1698949;83;21046;-65
2021/07/24 09:17:34;;;;;;;3.72;1.60;;;;;;;40.19;20.08;100030.36;1698397;83;21802;-65
2021/07/24 09:20:01;;;;;;;2.33;1.60;;;;;;;40.20;20.33;100033.89;1697892;84;21021;-65
2021/07/24 09:22:35;;;;;;;3.55;1.50;;;;;;;40.17;20.48;100027.84;1697360;84;21289;-66
2021/07/24 09:25:21;;;;;;;3.02;1.30;;;;;;;40.01;20.48;100024.88;1699482;83;21847;-67
2021/07/24 09:27:53;;;;;;;2.45;1.65;;;;;;;40.10;20.60;100025.85;1698010;84;21606;-64
2021/07/24 09:30:29;;;;;;;2.72;1.87;;;;;;;40.18;20.38;100021.20;1697276;84;21683;-65
2021/07/24 09:33:17;;;;;;;3.22;1.45;;;;;;;40.24;20.41;100021.80;1698516;83;21487;-64
2021/07/24 09:35:55;;;;;;;3.60;1.50;;;;;;;40.24;20.22;100019.06;1698038;84;21092;-65
2021/07/24 09:38:31;;;;;;;2.40;1.40;;;;;;;40.24;20.73;100021.80;1662839;84;21235;-64
2021/07/24 09:41:01;;;;;;;2.40;1.35;;;;;;;40.45;20.34;100020.22;1680784;85;21054;-65
2021/07/24 09:43:39;;;;;;;2.83;1.30;;;;;;;40.51;19.92;100015.93;1682162;83;21116;-64
2021/07/24 09:46:19;;;;;;;3.72;1.70;;;;;;;40.43;20.49;100018.48;1652459;85;21557;-64
2021/07/24 09:48:50;;;;;;;2.80;1.50;;;;;;;40.48;20.02;100018.08;1681010;85;21177;-64
2021/07/24 09:51:38;;;;;;;3.77;2.08;;;;;;;40.46;20.03;100019.03;1651375;86;20956;-63
2021/07/24 09:54:05;;;;;;;4.40;1.42;;;;;;;40.36;20.03;100020.63;1680310;85;20996;-64
2021/07/24 09:56:42;;;;;;;4.97;1.50;;;;;;;40.19;20.11;100016.70;1650901;86;21527;-63
2021/07/24 09:59:24;;;;;;;2.20;1.50;;;;;;;40.02;19.89;100013.37;1679131;83;21077;-63
2021/07/24 10:02:06;;;;;;;3.33;1.35;;;;;;;39.99;20.17;100012.78;1651952;86;21127;-63
2021/07/24 10:04:35;;;;;;;2.55;1.37;;;;;;;39.85;20.07;100010.22;1675983;83;21054;-64
2021/07/24 10:07:04;;;;;;;2.20;1.45;;;;;;;39.97;20.44;100009.64;1652052;86;21103;-63
2021/07/24 10:09:41;;;;;;;2.02;1.20;;;;;;;39.87;20.51;100012.58;1680053;85;21655;-62
2021/07/24 10:12:13;;;;;;;3.55;1.40;;;;;;;39.91;20.32;100013.95;1643257;86;20995;-63
2021/07/24 10:14:39;;;;;;;2.10;1.50;;;;;;;39.75;20.31;100014.31;1681616;83;21014;-63
2021/07/24 10:17:08;;;;;;;2.42;1.50;;;;;;;39.63;20.54;100009.39;1651866;86;21032;-63
2021/07/24 10:19:38;;;;;;;2.40;1.60;;;;;;;39.74;21.11;100009.45;1680147;84;22462;-61
2021/07/24 10:22:07;;;;;;;2.80;1.50;;;;;;;39.74;21.50;100016.83;1651750;86;21170;-62
2021/07/24 10:24:33;;;;;;;2.72;1.57;;;;;;;39.66;20.55;100009.95;1681205;85;21500;-63
2021/07/24 10:27:10;;;;;;;4.20;1.72;;;;;;;39.31;20.99;100012.00;1636091;87;21636;-63
2021/07/24 10:29:58;;;;;;;2.27;1.50;;;;;;;38.87;21.38;100021.68;1680564;84;21454;-61
2021/07/24 10:32:27;;;;;;;4.45;1.90;;;;;;;39.38;20.42;100012.03;1651675;86;20992;-63
2021/07/24 10:34:53;;;;;;;2.30;1.60;;;;;;;39.65;20.37;100013.08;1683066;83;21156;-63
2021/07/24 10:37:42;;;;;;;3.10;1.55;;;;;;;39.27;20.57;100027.57;1663693;86;20979;-63
2021/07/24 10:40:24;;;;;;;3.05;1.75;;;;;;;39.34;20.32;100016.70;1661192;86;21032;-63
2021/07/24 10:42:51;;;;;;;3.85;1.70;;;;;;;39.35;20.74;100020.98;1647619;86;21077;-61
2021/07/24 10:45:45;;;;;;;4.67;1.72;;;;;;;39.41;21.28;100007.77;1664418;86;21117;-63
2021/07/24 10:48:21;;;;;;;7.22;1.92;;;;;;;39.48;20.49;100011.10;1665383;83;22612;-63
2021/07/24 10:51:02;;;;;;;2.65;1.65;;;;;;;39.42;20.85;100012.05;1660959;86;21034;-64
2021/07/24 10:53:49;;;;;;;4.33;2.65;;;;;;;39.29;20.97;100014.34;1662887;84;21110;-63
2021/07/24 10:56:42;;;;;;;3.80;1.70;;;;;;;39.15;20.82;100013.67;1663565;86;21034;-62
2021/07/24 10:59:29;;;;;;;3.15;1.50;;;;;;;39.27;20.62;100013.94;1657429;86;21028;-61
2021/07/24 11:01:59;;;;;;;4.30;1.57;;;;;;;39.33;20.68;100015.73;1662457;85;22227;-62
2021/07/24 11:04:39;;;;;;;2.02;1.47;;;;;;;39.58;20.63;100013.06;1672703;84;20997;-62
2021/07/24 11:07:27;;;;;;;3.42;1.45;;;;;;;39.93;20.30;100006.13;1660243;84;20983;-63
2021/07/24 11:09:59;;;;;;;2.12;1.75;;;;;;;39.89;20.25;100008.30;1658135;84;21329;-61
2021/07/24 11:12:38;;;;;;;2.77;1.82;;;;;;;39.57;20.77;100010.14;1660169;85;20971;-61
2021/07/24 11:15:11;;;;;;;2.20;1.37;;;;;;;39.70;20.79;100014.09;1656966;86;21480;-64
2021/07/24 11:17:39;;;;;;;3.70;2.00;;;;;;;39.72;20.86;100010.98;1652419;84;20991;-62
2021/07/24 11:20:11;;;;;;;2.27;1.77;;;;;;;39.37;21.01;100009.11;1660169;85;20983;-62
2021/07/24 11:23:01;;;;;;;3.85;2.12;;;;;;;39.15;21.52;100016.39;1660635;84;21008;-61
2021/07/24 11:25:31;;;;;;;4.15;2.10;;;;;;;39.24;21.20;100015.28;1659709;84;21517;-62
2021/07/24 11:27:59;;;;;;;2.95;1.95;;;;;;;39.30;21.29;100013.17;1660713;84;21123;-62
2021/07/24 11:30:26;;;;;;;4.17;1.75;;;;;;;39.35;20.50;100002.47;1658453;85;21020;-61
2021/07/24 11:32:56;;;;;;;4.25;2.10;;;;;;;39.29;20.85;100004.03;1659395;85;21078;-63
2021/07/24 11:35:30;;;;;;;3.22;1.90;;;;;;;39.51;21.37;99998.81;1659932;85;20963;-64
2021/07/24 11:37:57;;;;;;;3.02;2.08;;;;;;;39.48;21.07;100002.92;1657331;86;20980;-61